KSEM/SEM METAR and TAF weather

Enter ICAO airport designator
Station Type Date Time Source
KSEM METAR 2019/08/24 07:55 UTC NOAA

KSEM 240755Z AUTO 00000KT 10SM 24/23 A2999 RMK AO2


Station Type Date Time Source
KSEM Decoded METAR 2019/08/24 07:55 UTC NOAA

Station name not available
Aug 24, 2019 - 03:55 AM EDT / 2019.08.24 0755 UTC
Wind: Calm:0
Visibility: 10 mile(s):0
Temperature: 75 F (24 C)
Dew Point: 73 F (23 C)
Relative Humidity: 94%
Pressure (altimeter): 29.99 in. Hg (1015 hPa)
ob: KSEM 240755Z AUTO 00000KT 10SM 24/23 A2999 RMK AO2
cycle: 8

Station Type Date Time Source
KSEM TAF UTC NOAA

Error!

Example: see airport list